CYBB

Pelly Bay Airport

Pelly Bay, Canada
METAR CYBB 192300Z 31013G22KT 15SM OVC020 04/00 A2986 RMK SC8 4.9/1.3/TR/LAST STFD OBS/NXT/201200Z SLP113
Observed Flight Rules
Jun-19 @ 23:00 UTC (7 hours ago) Marginal Visual Flight Rules
Wind Visibility Clouds
310° at 13 knots
 Gusting to 22 knots
15 miles
  • Overcast at 2,000' AGL
Temperatures Readings
Current 4°C / 39°F
Dewpoint 0°C / 32°F
Humidity 75%
Altimeter 29.86" Hg
Pressure 1011.3 hPa
Elevation 15
METAR CYBB 192300Z 31013G22KT 15SM OVC020 04/00 A2986 RMK SC8 4.9/1.3/TR/LAST STFD OBS/NXT/201200Z SLP113
Observed Flight Rules
Jun-19 @ 23:00 UTC
(7 hours ago)
MVFR
Wind Visibility
310° at 13 knots
 Gusting to 22 knots
15 miles
Clouds
  • Overcast at 2,000' AGL
Temperature Dewpoint
4°C / 39°F 0°C / 32°F
Humidity Altimeter Pressure
75% 29.86" Hg 1011.3 hPa